createdAt,value
2019-04-07T00:00:15.278Z,79.79
2019-04-07T00:01:15.818Z,79.58
2019-04-07T00:02:15.505Z,80.23
2019-04-07T00:03:16.149Z,79.38
2019-04-07T00:04:15.874Z,78.97
2019-04-07T00:05:16.150Z,79.68
2019-04-07T00:06:16.261Z,80.19
2019-04-07T00:07:16.417Z,80.13
2019-04-07T00:08:16.901Z,80.09
2019-04-07T00:09:16.857Z,79.62
2019-04-07T00:10:16.883Z,80.19
2019-04-07T00:11:17.862Z,80.09
2019-04-07T00:12:17.366Z,80.03
2019-04-07T00:13:17.434Z,80.54
2019-04-07T00:14:18.066Z,80.60
2019-04-07T00:15:17.766Z,80.95
2019-04-07T00:16:18.522Z,80.74
2019-04-07T00:17:18.358Z,80.03
2019-04-07T00:18:19.145Z,80.30
2019-04-07T00:19:18.428Z,79.93
2019-04-07T00:20:18.704Z,79.99
2019-04-07T00:21:18.840Z,80.60
2019-04-07T00:22:19.929Z,80.33
2019-04-07T00:23:18.981Z,79.79
2019-04-07T00:24:19.320Z,79.72
2019-04-07T00:25:19.360Z,79.27
2019-04-07T00:26:19.512Z,79.07
2019-04-07T00:27:20.178Z,79.99
2019-04-07T00:28:19.853Z,79.89
2019-04-07T00:29:19.992Z,80.03
2019-04-07T00:30:20.117Z,80.51
2019-04-07T00:31:20.539Z,80.40
2019-04-07T00:32:21.134Z,80.40
2019-04-07T00:33:20.723Z,80.74
2019-04-07T00:34:22.205Z,81.22
2019-04-07T00:35:28.100Z,80.54
2019-04-07T00:36:23.331Z,80.33
2019-04-07T00:37:22.861Z,80.33
2019-04-07T00:38:21.766Z,79.68
2019-04-07T00:39:23.270Z,79.68
2019-04-07T00:40:22.848Z,79.58
2019-04-07T00:41:22.233Z,79.68
2019-04-07T00:42:22.611Z,79.27
2019-04-07T00:43:22.866Z,79.89
2019-04-07T00:44:22.777Z,79.68
2019-04-07T00:45:22.953Z,80.19
2019-04-07T00:46:23.388Z,79.99
2019-04-07T00:47:23.462Z,80.30
2019-04-07T00:48:24.405Z,80.30
2019-04-07T00:49:23.702Z,80.09
2019-04-07T00:50:24.118Z,79.58
2019-04-07T00:51:24.045Z,79.68
2019-04-07T00:52:24.820Z,79.68
2019-04-07T00:53:24.375Z,80.09
2019-04-07T00:54:25.261Z,80.09
2019-04-07T00:55:25.396Z,80.09
2019-04-07T00:56:24.847Z,80.40
2019-04-07T00:57:25.376Z,80.74
2019-04-07T00:58:25.263Z,80.51
2019-04-07T00:59:25.488Z,80.51
2019-04-07T01:00:25.675Z,79.99
2019-04-07T01:01:26.141Z,79.48
2019-04-07T01:02:26.094Z,80.81
2019-04-07T01:03:26.295Z,80.19
2019-04-07T01:04:26.590Z,80.19
2019-04-07T01:05:35.461Z,80.60
2019-04-07T01:06:29.454Z,80.60
2019-04-07T01:07:27.924Z,81.26
2019-04-07T01:08:27.323Z,81.52
2019-04-07T01:09:27.712Z,81.26
2019-04-07T01:10:27.746Z,81.36
2019-04-07T01:11:27.809Z,80.74
2019-04-07T01:12:29.338Z,80.95
2019-04-07T01:13:28.086Z,81.05
2019-04-07T01:14:28.952Z,81.46
2019-04-07T01:15:28.439Z,81.15
2019-04-07T01:16:28.631Z,81.57
2019-04-07T01:17:29.131Z,81.26
2019-04-07T01:18:28.946Z,81.15
2019-04-07T01:19:29.164Z,81.67
2019-04-07T01:20:29.567Z,81.87
2019-04-07T01:21:29.513Z,82.12
2019-04-07T01:22:30.921Z,82.01
2019-04-07T01:23:29.843Z,82.12
2019-04-07T01:24:30.412Z,82.53
2019-04-07T01:25:30.244Z,82.93
2019-04-07T01:26:30.383Z,82.42
2019-04-07T01:27:31.128Z,82.22
2019-04-07T01:28:30.672Z,82.42
2019-04-07T01:29:30.923Z,81.91
2019-04-07T01:30:31.881Z,81.05
2019-04-07T01:31:31.139Z,81.57
2019-04-07T01:32:31.408Z,80.88
2019-04-07T01:33:31.485Z,80.44
2019-04-07T01:34:31.723Z,80.33
2019-04-07T01:35:32.087Z,80.44
2019-04-07T01:36:32.515Z,80.33
2019-04-07T01:37:32.864Z,80.33
2019-04-07T01:38:33.139Z,80.19
2019-04-07T01:39:32.649Z,80.23
2019-04-07T01:40:33.112Z,79.27
2019-04-07T01:41:32.989Z,78.97
2019-04-07T01:42:33.415Z,79.38
2019-04-07T01:43:33.929Z,79.68
2019-04-07T01:44:33.510Z,79.72
2019-04-07T01:45:34.257Z,80.33
2019-04-07T01:46:33.933Z,80.54
2019-04-07T01:47:34.326Z,80.44
2019-04-07T01:48:34.637Z,80.85
2019-04-07T01:49:34.790Z,81.46
2019-04-07T01:50:34.606Z,81.71
2019-04-07T01:51:34.939Z,82.01
2019-04-07T01:52:36.453Z,81.91
2019-04-07T01:53:35.618Z,82.56
2019-04-07T01:54:35.269Z,82.67
2019-04-07T01:55:35.766Z,82.63
2019-04-07T01:56:36.229Z,82.87
2019-04-07T01:57:36.363Z,82.56
2019-04-07T01:58:35.927Z,82.87
2019-04-07T01:59:36.504Z,83.18
2019-04-07T02:00:36.194Z,83.18
2019-04-07T02:01:37.252Z,83.69
2019-04-07T02:02:36.702Z,83.94
2019-04-07T02:03:37.328Z,84.86
2019-04-07T02:04:37.438Z,85.17
2019-04-07T02:05:37.379Z,85.21
2019-04-07T02:06:37.396Z,84.69
2019-04-07T02:07:37.525Z,85.31
2019-04-07T02:08:37.483Z,85.93
2019-04-07T02:09:37.935Z,85.72
2019-04-07T02:10:37.839Z,85.97
2019-04-07T02:11:38.605Z,85.86
2019-04-07T02:12:38.199Z,85.21
2019-04-07T02:13:38.366Z,85.04
2019-04-07T02:14:39.322Z,85.31
2019-04-07T02:15:39.362Z,85.46
2019-04-07T02:16:38.761Z,85.35
2019-04-07T02:17:39.024Z,85.31
2019-04-07T02:18:39.142Z,85.25
2019-04-07T02:19:39.565Z,86.07
2019-04-07T02:20:39.506Z,86.07
2019-04-07T02:21:40.333Z,86.07
2019-04-07T02:22:39.881Z,86.17
2019-04-07T02:23:40.538Z,85.76
2019-04-07T02:24:40.167Z,85.55
2019-04-07T02:25:40.583Z,85.86
2019-04-07T02:26:40.581Z,85.97
2019-04-07T02:27:40.624Z,86.17
2019-04-07T02:28:40.868Z,86.17
2019-04-07T02:29:40.947Z,86.17
2019-04-07T02:30:41.596Z,85.97
2019-04-07T02:31:42.258Z,86.11
2019-04-07T02:32:42.123Z,86.27
2019-04-07T02:33:42.502Z,85.90
2019-04-07T02:34:42.873Z,86.21
2019-04-07T02:35:43.101Z,86.83
2019-04-07T02:36:43.189Z,87.28
2019-04-07T02:37:42.628Z,86.66
2019-04-07T02:38:42.635Z,86.62
2019-04-07T02:39:43.746Z,86.00
2019-04-07T02:40:42.954Z,86.00
2019-04-07T02:41:43.330Z,85.80
2019-04-07T02:42:43.348Z,85.53
2019-04-07T02:43:44.514Z,86.05
2019-04-07T02:44:45.161Z,86.15
2019-04-07T02:45:43.876Z,87.01
2019-04-07T02:46:44.878Z,87.52
2019-04-07T02:47:44.576Z,88.14
2019-04-07T02:48:44.638Z,87.84
2019-04-07T02:49:45.684Z,87.63
2019-04-07T02:50:46.515Z,87.32
2019-04-07T02:51:45.528Z,88.14
2019-04-07T02:52:45.314Z,87.84
2019-04-07T02:53:46.956Z,87.84
2019-04-07T02:54:46.400Z,87.69
2019-04-07T02:55:45.870Z,87.07
2019-04-07T02:56:47.271Z,85.94
2019-04-07T02:57:47.385Z,86.05
2019-04-07T02:58:47.752Z,86.15
2019-04-07T02:59:46.434Z,85.94
2019-04-07T03:00:46.844Z,86.05
2019-04-07T03:01:46.762Z,87.12
2019-04-07T03:02:47.653Z,87.22
2019-04-07T03:03:46.852Z,86.19
2019-04-07T03:04:47.498Z,85.84
2019-04-07T03:05:47.647Z,85.63
2019-04-07T03:06:51.029Z,86.08
2019-04-07T03:07:50.342Z,86.80
2019-04-07T03:08:49.152Z,87.36
2019-04-07T03:09:47.940Z,88.49
2019-04-07T03:10:48.098Z,88.64
2019-04-07T03:11:49.043Z,89.36
2019-04-07T03:12:48.693Z,89.56
2019-04-07T03:13:49.012Z,89.77
2019-04-07T03:14:50.570Z,89.19
2019-04-07T03:15:49.403Z,89.46
2019-04-07T03:16:49.594Z,89.09
2019-04-07T03:17:49.783Z,89.50
2019-04-07T03:18:50.723Z,89.23
2019-04-07T03:19:49.675Z,89.85
2019-04-07T03:20:49.844Z,90.47
2019-04-07T03:21:50.014Z,90.47
2019-04-07T03:22:50.725Z,90.57
2019-04-07T03:23:51.314Z,90.26
2019-04-07T03:24:50.583Z,90.67
2019-04-07T03:25:50.993Z,90.26
2019-04-07T03:26:51.452Z,90.47
2019-04-07T03:27:52.760Z,91.36
2019-04-07T03:28:51.463Z,91.40
2019-04-07T03:29:51.539Z,90.78
2019-04-07T03:30:52.473Z,91.09
2019-04-07T03:31:53.552Z,91.09
2019-04-07T03:32:54.937Z,90.99
2019-04-07T03:33:54.491Z,90.88
2019-04-07T03:34:55.434Z,90.43
2019-04-07T03:35:55.725Z,90.57
2019-04-07T03:37:16.988Z,89.95
2019-04-07T03:37:54.924Z,90.47
2019-04-07T03:38:53.717Z,90.16
2019-04-07T03:39:53.899Z,90.67
2019-04-07T03:40:53.402Z,91.30
2019-04-07T03:41:53.749Z,90.88
2019-04-07T03:42:55.267Z,91.30
2019-04-07T03:43:53.993Z,90.06
2019-04-07T03:44:54.045Z,90.16
2019-04-07T03:45:54.998Z,90.67
2019-04-07T03:46:55.162Z,90.06
2019-04-07T03:47:54.722Z,90.57
2019-04-07T03:48:55.636Z,90.99
2019-04-07T03:49:55.079Z,90.67
2019-04-07T03:50:55.093Z,90.57
2019-04-07T03:51:55.983Z,90.88
2019-04-07T03:52:56.339Z,90.47
2019-04-07T03:53:56.033Z,90.78
2019-04-07T03:54:56.927Z,90.43
2019-04-07T03:55:55.997Z,90.88
2019-04-07T03:56:56.537Z,90.37
2019-04-07T03:57:56.948Z,89.54
2019-04-07T03:58:57.654Z,89.34
2019-04-07T03:59:57.677Z,89.09
2019-04-07T04:00:57.530Z,88.89
2019-04-07T04:01:57.888Z,87.81
2019-04-07T04:02:57.889Z,88.57
2019-04-07T04:03:57.375Z,88.82
2019-04-07T04:04:57.713Z,88.68
2019-04-07T04:05:57.917Z,89.54
2019-04-07T04:06:57.906Z,89.40
2019-04-07T04:07:58.086Z,88.99
2019-04-07T04:08:58.619Z,88.02
2019-04-07T04:09:58.397Z,88.68
2019-04-07T04:10:59.944Z,87.30
2019-04-07T04:11:58.697Z,85.86
2019-04-07T04:12:58.817Z,85.41
2019-04-07T04:13:59.055Z,84.13
2019-04-07T04:15:00.211Z,82.51
2019-04-07T04:15:59.511Z,80.83
2019-04-07T04:16:59.621Z,80.83
2019-04-07T04:17:59.851Z,81.14
2019-04-07T04:19:00.197Z,81.59
2019-04-07T04:20:00.419Z,82.62
2019-04-07T04:21:01.396Z,82.51
2019-04-07T04:22:00.656Z,82.96
2019-04-07T04:23:00.909Z,82.90
2019-04-07T04:24:01.404Z,83.72
2019-04-07T04:25:01.158Z,83.83
2019-04-07T04:26:02.574Z,83.27
2019-04-07T04:27:02.523Z,82.20
2019-04-07T04:28:01.657Z,81.73
2019-04-07T04:29:02.626Z,82.34
2019-04-07T04:30:02.967Z,82.34
2019-04-07T04:31:02.254Z,82.86
2019-04-07T04:32:03.139Z,82.65
2019-04-07T04:33:02.520Z,82.86
2019-04-07T04:34:03.356Z,82.96
2019-04-07T04:35:03.266Z,83.06
2019-04-07T04:36:02.990Z,82.76
2019-04-07T04:37:03.923Z,82.96
2019-04-07T04:38:03.894Z,83.06
2019-04-07T04:39:04.734Z,82.34
2019-04-07T04:40:03.900Z,82.34
2019-04-07T04:41:04.859Z,82.96
2019-04-07T04:42:05.525Z,82.65
2019-04-07T04:43:04.727Z,83.20
2019-04-07T04:44:04.735Z,82.79
2019-04-07T04:45:06.067Z,82.79
2019-04-07T04:46:08.687Z,83.00
2019-04-07T04:47:06.353Z,83.17
2019-04-07T04:48:06.575Z,82.24
2019-04-07T04:49:06.686Z,81.28
2019-04-07T04:50:06.352Z,80.66
2019-04-07T04:51:06.665Z,81.07
2019-04-07T04:52:07.067Z,80.66
2019-04-07T04:53:06.387Z,80.46
2019-04-07T04:54:07.100Z,79.91
2019-04-07T04:55:07.193Z,79.60
2019-04-07T04:56:07.547Z,79.29
2019-04-07T04:57:09.238Z,80.01
2019-04-07T04:58:08.757Z,80.66
2019-04-07T04:59:07.563Z,80.70
2019-04-07T05:00:07.562Z,80.60
2019-04-07T05:01:07.701Z,81.42
2019-04-07T05:02:07.859Z,81.52
2019-04-07T05:03:08.207Z,81.87
2019-04-07T05:04:08.148Z,82.39
2019-04-07T05:05:09.547Z,83.14
2019-04-07T05:06:10.222Z,83.14
2019-04-07T05:07:08.622Z,83.55
2019-04-07T05:08:09.412Z,84.11
2019-04-07T05:09:09.406Z,85.28
2019-04-07T05:10:10.108Z,85.44
2019-04-07T05:11:09.534Z,85.75
2019-04-07T05:12:10.127Z,84.83
2019-04-07T05:13:10.399Z,85.65
2019-04-07T05:14:11.431Z,85.89
2019-04-07T05:15:10.852Z,85.24
2019-04-07T05:16:10.622Z,85.44
2019-04-07T05:17:11.674Z,84.52
2019-04-07T05:18:10.888Z,85.49
2019-04-07T05:19:11.068Z,84.62
2019-04-07T05:20:11.092Z,84.31
2019-04-07T05:21:11.855Z,84.52
2019-04-07T05:22:11.358Z,85.03
2019-04-07T05:23:11.483Z,84.72
2019-04-07T05:24:11.652Z,85.55
2019-04-07T05:25:12.030Z,85.44
2019-04-07T05:26:11.955Z,84.52
2019-04-07T05:27:12.783Z,83.97
2019-04-07T05:28:12.393Z,83.90
2019-04-07T05:29:12.547Z,83.86
2019-04-07T05:30:12.780Z,83.65
2019-04-07T05:31:13.290Z,84.48
2019-04-07T05:32:12.950Z,84.48
2019-04-07T05:33:13.995Z,83.97
2019-04-07T05:34:16.753Z,83.76
2019-04-07T05:35:15.485Z,83.76
2019-04-07T05:36:14.782Z,84.17
2019-04-07T05:37:14.100Z,84.07
2019-04-07T05:38:14.694Z,84.17
2019-04-07T05:39:14.343Z,83.20
2019-04-07T05:40:15.564Z,82.45
2019-04-07T05:41:14.960Z,82.55
2019-04-07T05:42:14.821Z,81.83
2019-04-07T05:43:15.123Z,81.69
2019-04-07T05:44:15.152Z,80.77
2019-04-07T05:45:15.925Z,80.77
2019-04-07T05:46:16.006Z,80.52
2019-04-07T05:47:15.622Z,80.21
2019-04-07T05:48:19.310Z,79.91
2019-04-07T05:49:16.941Z,79.39
2019-04-07T05:50:16.645Z,80.07
2019-04-07T05:51:16.505Z,78.85
2019-04-07T05:52:17.208Z,78.29
2019-04-07T05:53:17.047Z,77.98
2019-04-07T05:54:19.492Z,78.29
2019-04-07T05:55:20.641Z,77.44
2019-04-07T05:56:18.560Z,77.64
2019-04-07T05:57:17.552Z,77.98
2019-04-07T05:58:18.012Z,78.39
2019-04-07T05:59:17.828Z,79.15
2019-04-07T06:00:18.747Z,79.25
2019-04-07T06:01:21.733Z,79.87
2019-04-07T06:02:20.256Z,79.25
2019-04-07T06:03:18.741Z,78.81
2019-04-07T06:04:19.320Z,78.60
2019-04-07T06:05:19.532Z,78.16
2019-04-07T06:06:20.536Z,78.05
2019-04-07T06:07:19.204Z,77.84
2019-04-07T06:08:27.771Z,77.91
2019-04-07T06:09:21.559Z,76.68
2019-04-07T06:10:23.873Z,76.58
2019-04-07T06:11:22.043Z,75.73
2019-04-07T06:12:20.357Z,74.60
2019-04-07T06:13:20.303Z,74.29
2019-04-07T06:14:20.533Z,74.15
2019-04-07T06:15:22.132Z,73.74
2019-04-07T06:16:22.530Z,73.71
2019-04-07T06:17:24.189Z,73.50
2019-04-07T06:18:21.135Z,72.96
2019-04-07T06:19:21.518Z,73.10
2019-04-07T06:20:22.584Z,73.10
2019-04-07T06:21:22.171Z,73.30
2019-04-07T06:22:22.030Z,73.20
2019-04-07T06:23:24.259Z,73.30
2019-04-07T06:24:23.097Z,72.55
2019-04-07T06:25:22.312Z,73.16
2019-04-07T06:26:22.559Z,72.21
2019-04-07T06:27:22.846Z,71.42
2019-04-07T06:28:23.793Z,71.46
2019-04-07T06:29:26.107Z,71.09
2019-04-07T06:30:28.089Z,68.37
2019-04-07T06:31:26.082Z,67.38
2019-04-07T06:32:24.586Z,64.67
2019-04-07T06:33:23.795Z,62.98
2019-04-07T06:34:24.959Z,60.46
2019-04-07T06:35:25.117Z,59.82
2019-04-07T06:36:26.572Z,60.02
2019-04-07T06:37:28.869Z,59.66
2019-04-07T06:38:33.065Z,58.01
2019-04-07T06:39:27.603Z,57.20
2019-04-07T06:40:24.870Z,57.20
2019-04-07T06:41:30.113Z,55.80
2019-04-07T06:42:31.545Z,54.82
2019-04-07T06:43:27.070Z,53.98
2019-04-07T06:44:25.950Z,52.14
2019-04-07T06:45:26.566Z,51.10
2019-04-07T06:46:28.483Z,51.50
2019-04-07T06:47:30.795Z,51.38
2019-04-07T06:48:26.709Z,49.33
2019-04-07T06:49:28.416Z,48.93
2019-04-07T06:50:28.421Z,50.37
2019-04-07T06:51:29.202Z,48.85
2019-04-07T06:52:28.552Z,49.33
2019-04-07T06:53:27.058Z,50.24
2019-04-07T06:54:27.163Z,50.72
2019-04-07T06:55:28.912Z,53.83
2019-04-07T06:56:32.179Z,55.04
2019-04-07T06:57:29.914Z,57.66
2019-04-07T06:58:28.946Z,58.50
2019-04-07T06:59:28.368Z,59.54
2019-04-07T07:00:29.005Z,59.69
2019-04-07T07:01:29.645Z,57.58
2019-04-07T07:02:29.515Z,55.27
2019-04-07T07:03:33.542Z,52.26
2019-04-07T07:04:31.103Z,50.98
2019-04-07T07:05:29.950Z,50.73
2019-04-07T07:06:29.503Z,48.81
2019-04-07T07:07:29.668Z,48.58
2019-04-07T07:08:37.249Z,48.49
2019-04-07T07:09:31.786Z,48.50
2019-04-07T07:10:35.053Z,48.61
2019-04-07T07:11:34.375Z,47.66
2019-04-07T07:12:38.073Z,48.34
2019-04-07T07:13:35.440Z,46.18
2019-04-07T07:14:40.501Z,46.06
2019-04-07T07:15:35.376Z,45.53
2019-04-07T07:16:32.943Z,44.95
2019-04-07T07:17:32.253Z,46.54
2019-04-07T07:18:32.210Z,44.99
2019-04-07T07:19:31.699Z,43.78
2019-04-07T07:20:31.889Z,43.20
2019-04-07T07:21:36.487Z,44.38
2019-04-07T07:22:34.521Z,43.64
2019-04-07T07:23:33.170Z,42.33
2019-04-07T07:24:32.756Z,43.12
2019-04-07T07:25:33.302Z,42.32
2019-04-07T07:26:35.407Z,42.10
2019-04-07T07:27:34.430Z,40.97
2019-04-07T07:28:33.947Z,40.69
2019-04-07T07:29:33.832Z,42.38
2019-04-07T07:30:34.928Z,40.67
2019-04-07T07:31:35.726Z,40.85
2019-04-07T07:32:37.279Z,39.83
2019-04-07T07:33:38.931Z,41.43
2019-04-07T07:34:39.900Z,41.60
2019-04-07T07:35:35.634Z,42.21
2019-04-07T07:36:35.064Z,43.76
2019-04-07T07:37:35.347Z,43.56
2019-04-07T07:38:35.264Z,43.08
2019-04-07T07:39:36.047Z,44.40
2019-04-07T07:40:35.647Z,44.67
2019-04-07T07:41:35.797Z,45.47
2019-04-07T07:42:36.601Z,47.20
2019-04-07T07:43:36.101Z,47.75
2019-04-07T07:44:38.478Z,47.24
2019-04-07T07:45:37.200Z,49.01
2019-04-07T07:46:37.390Z,49.71
2019-04-07T07:47:37.229Z,50.24
2019-04-07T07:48:37.720Z,51.60
2019-04-07T07:49:40.340Z,52.54
2019-04-07T07:50:40.296Z,51.22
2019-04-07T07:51:39.373Z,50.89
2019-04-07T07:52:38.857Z,50.26
2019-04-07T07:53:38.307Z,51.45
2019-04-07T07:54:38.657Z,49.13
2019-04-07T07:55:38.661Z,46.37
2019-04-07T07:56:41.445Z,48.50
2019-04-07T07:57:40.482Z,47.06
2019-04-07T07:58:39.578Z,46.69
2019-04-07T07:59:40.192Z,45.76
2019-04-07T08:00:42.357Z,45.94
2019-04-07T08:01:44.283Z,44.35
2019-04-07T08:02:41.547Z,45.40
2019-04-07T08:03:40.501Z,45.40
2019-04-07T08:04:39.974Z,45.36
2019-04-07T08:05:40.865Z,45.03
2019-04-07T08:06:41.062Z,44.35
2019-04-07T08:07:45.721Z,43.80
2019-04-07T08:08:45.155Z,42.38
2019-04-07T08:09:42.128Z,42.47
2019-04-07T08:10:41.174Z,42.68
2019-04-07T08:11:41.403Z,42.55
2019-04-07T08:12:42.162Z,42.41
2019-04-07T08:13:44.723Z,40.81
2019-04-07T08:14:43.697Z,42.78
2019-04-07T08:15:42.627Z,42.52
2019-04-07T08:16:42.476Z,43.80
2019-04-07T08:17:43.083Z,43.51
2019-04-07T08:18:45.217Z,44.61
2019-04-07T08:19:44.530Z,43.51
2019-04-07T08:20:45.092Z,43.85
2019-04-07T08:21:45.629Z,44.45
2019-04-07T08:22:44.024Z,44.11
2019-04-07T08:23:45.372Z,42.92
2019-04-07T08:24:45.492Z,44.19
2019-04-07T08:25:43.792Z,42.07
2019-04-07T08:26:44.753Z,43.82
2019-04-07T08:27:44.190Z,43.22
2019-04-07T08:28:45.046Z,43.30
2019-04-07T08:29:45.235Z,42.80
2019-04-07T08:30:47.442Z,42.05
2019-04-07T08:31:44.890Z,40.73
2019-04-07T08:32:45.398Z,42.21
2019-04-07T08:33:45.066Z,41.19
2019-04-07T08:34:45.938Z,40.99
2019-04-07T08:35:45.968Z,42.30
2019-04-07T08:36:47.039Z,42.66
2019-04-07T08:37:46.361Z,42.78
2019-04-07T08:38:47.688Z,43.66
2019-04-07T08:39:46.046Z,42.13
2019-04-07T08:40:46.819Z,40.79
2019-04-07T08:41:47.192Z,40.83
2019-04-07T08:42:49.055Z,43.54
2019-04-07T08:43:48.391Z,44.13
2019-04-07T08:44:47.366Z,45.26
2019-04-07T08:45:47.168Z,44.29
2019-04-07T08:46:47.483Z,43.82
2019-04-07T08:47:50.034Z,42.68
2019-04-07T08:48:51.016Z,40.83
2019-04-07T08:49:49.537Z,40.92
2019-04-07T08:50:48.602Z,41.77
2019-04-07T08:51:49.506Z,42.25
2019-04-07T08:52:48.496Z,42.01
2019-04-07T08:53:48.632Z,40.84
2019-04-07T08:54:51.399Z,41.83
2019-04-07T08:55:52.121Z,39.70
2019-04-07T08:56:50.273Z,41.39
2019-04-07T08:57:49.469Z,38.48
2019-04-07T08:58:49.488Z,39.34
2019-04-07T08:59:49.630Z,38.26
2019-04-07T09:00:51.976Z,39.56
2019-04-07T09:01:53.497Z,39.76
2019-04-07T09:03:01.710Z,38.66
2019-04-07T09:03:52.713Z,38.92
2019-04-07T09:04:52.400Z,38.68
2019-04-07T09:05:51.346Z,39.01
2019-04-07T09:06:50.816Z,39.54
2019-04-07T09:07:51.797Z,39.52
2019-04-07T09:08:52.141Z,39.80
2019-04-07T09:09:51.451Z,39.90
2019-04-07T09:10:52.641Z,40.73
2019-04-07T09:11:54.909Z,40.12
2019-04-07T09:12:52.991Z,39.14
2019-04-07T09:13:52.603Z,39.45
2019-04-07T09:14:52.143Z,39.94
2019-04-07T09:15:52.298Z,39.52
2019-04-07T09:16:54.948Z,39.94
2019-04-07T09:17:54.328Z,40.44
2019-04-07T09:19:00.699Z,41.31
2019-04-07T09:19:55.482Z,38.58
2019-04-07T09:20:53.180Z,38.29
2019-04-07T09:21:54.237Z,40.04
2019-04-07T09:22:56.642Z,40.02
2019-04-07T09:23:56.324Z,39.75
2019-04-07T09:24:54.483Z,38.54
2019-04-07T09:25:55.104Z,37.52
2019-04-07T09:26:54.428Z,37.90
2019-04-07T09:27:55.041Z,36.54
2019-04-07T09:28:55.813Z,38.82
2019-04-07T09:29:57.836Z,36.48
2019-04-07T09:30:56.330Z,36.58
2019-04-07T09:31:54.845Z,35.96
2019-04-07T09:32:55.804Z,34.86
2019-04-07T09:33:56.090Z,36.75
2019-04-07T09:34:56.187Z,35.91
2019-04-07T09:35:59.067Z,38.42
2019-04-07T09:36:56.739Z,40.02
2019-04-07T09:37:56.020Z,39.20
2019-04-07T09:38:59.943Z,38.60
2019-04-07T09:40:01.041Z,38.51
2019-04-07T09:40:58.401Z,38.21
2019-04-07T09:41:57.229Z,38.11
2019-04-07T09:42:59.910Z,36.69
2019-04-07T09:44:01.079Z,38.79
2019-04-07T09:44:57.511Z,36.07
2019-04-07T09:45:57.420Z,36.55
2019-04-07T09:46:58.549Z,36.55
2019-04-07T09:47:57.771Z,37.74
2019-04-07T09:48:58.766Z,36.32
2019-04-07T09:49:58.419Z,36.63
2019-04-07T09:51:02.418Z,37.46
2019-04-07T09:52:00.979Z,37.71
2019-04-07T09:52:58.509Z,38.28
2019-04-07T09:54:00.286Z,36.95
2019-04-07T09:54:58.871Z,35.91
2019-04-07T09:55:59.223Z,37.28
2019-04-07T09:57:03.354Z,36.02
2019-04-07T09:58:00.274Z,37.49
2019-04-07T09:59:00.297Z,38.23
2019-04-07T10:00:00.458Z,38.73
2019-04-07T10:00:59.848Z,38.01
2019-04-07T10:02:01.502Z,37.49
2019-04-07T10:03:04.997Z,37.08
2019-04-07T10:04:01.542Z,38.42
2019-04-07T10:05:01.010Z,38.03
2019-04-07T10:06:00.994Z,38.23
2019-04-07T10:07:02.659Z,38.55
2019-04-07T10:08:02.195Z,39.36
2019-04-07T10:09:02.142Z,39.65
2019-04-07T10:10:09.964Z,39.36
2019-04-07T10:11:04.230Z,39.84
2019-04-07T10:12:02.999Z,39.86
2019-04-07T10:13:03.132Z,38.93
2019-04-07T10:14:02.394Z,38.31
2019-04-07T10:15:03.036Z,38.62
2019-04-07T10:16:02.833Z,39.28
2019-04-07T10:17:03.498Z,38.68
2019-04-07T10:18:03.272Z,37.17
2019-04-07T10:19:03.322Z,36.79
2019-04-07T10:20:04.968Z,38.21
2019-04-07T10:21:03.746Z,38.53
2019-04-07T10:22:03.880Z,38.13
2019-04-07T10:23:04.015Z,37.51
2019-04-07T10:24:04.133Z,36.99
2019-04-07T10:25:04.450Z,38.40
2019-04-07T10:26:05.020Z,37.57
2019-04-07T10:27:05.902Z,36.97
2019-04-07T10:28:07.330Z,38.23
2019-04-07T10:29:06.061Z,38.87
2019-04-07T10:30:05.742Z,38.97
2019-04-07T10:31:05.469Z,40.01
2019-04-07T10:32:06.399Z,41.05
2019-04-07T10:33:06.692Z,39.09
2019-04-07T10:34:08.056Z,38.75
2019-04-07T10:35:06.888Z,39.70
2019-04-07T10:36:07.762Z,39.51
2019-04-07T10:37:06.785Z,38.50
2019-04-07T10:38:07.482Z,38.77
2019-04-07T10:39:07.340Z,38.31
2019-04-07T10:40:16.679Z,38.92
2019-04-07T10:41:09.249Z,37.19
2019-04-07T10:42:07.431Z,36.89
2019-04-07T10:43:08.404Z,37.37
2019-04-07T10:44:08.469Z,36.57
2019-04-07T10:45:08.991Z,35.97
2019-04-07T10:46:08.265Z,36.35
2019-04-07T10:47:08.256Z,35.95
2019-04-07T10:48:09.404Z,36.36
2019-04-07T10:49:09.231Z,37.35
2019-04-07T10:50:08.940Z,36.15
2019-04-07T10:51:10.523Z,37.46
2019-04-07T10:52:09.262Z,36.03
2019-04-07T10:53:09.518Z,36.63
2019-04-07T10:54:10.040Z,37.52
2019-04-07T10:55:09.737Z,36.83
2019-04-07T10:56:09.928Z,36.72
2019-04-07T10:57:10.041Z,36.50
2019-04-07T10:58:10.609Z,36.11
2019-04-07T10:59:10.544Z,35.75
2019-04-07T11:00:11.000Z,37.77
2019-04-07T11:01:11.138Z,36.36
2019-04-07T11:02:11.818Z,37.79
2019-04-07T11:03:11.125Z,38.18
2019-04-07T11:04:11.308Z,38.20
2019-04-07T11:05:12.015Z,37.61
2019-04-07T11:06:11.695Z,37.71
2019-04-07T11:07:11.846Z,39.01
2019-04-07T11:08:12.029Z,38.33
2019-04-07T11:09:12.191Z,38.55
2019-04-07T11:10:12.528Z,38.43
2019-04-07T11:11:13.288Z,38.43
2019-04-07T11:12:12.678Z,38.53
2019-04-07T11:13:14.599Z,38.43
2019-04-07T11:14:13.434Z,37.83
2019-04-07T11:15:13.789Z,37.10
2019-04-07T11:16:13.211Z,38.20
2019-04-07T11:17:14.102Z,37.77
2019-04-07T11:18:13.747Z,37.49
2019-04-07T11:19:14.882Z,38.49
2019-04-07T11:20:14.882Z,38.79
2019-04-07T11:21:14.277Z,38.51
2019-04-07T11:22:14.526Z,38.64
2019-04-07T11:23:15.521Z,39.05
2019-04-07T11:24:15.503Z,39.78
2019-04-07T11:25:16.469Z,39.78
2019-04-07T11:26:15.538Z,41.27
2019-04-07T11:27:15.512Z,39.78
2019-04-07T11:28:15.629Z,38.65
2019-04-07T11:29:16.585Z,38.35
2019-04-07T11:30:16.909Z,39.07
2019-04-07T11:31:16.826Z,40.06
2019-04-07T11:32:16.524Z,38.93
2019-04-07T11:33:16.614Z,38.43
2019-04-07T11:34:17.467Z,38.03
2019-04-07T11:35:17.139Z,39.86
2019-04-07T11:36:19.544Z,37.83
2019-04-07T11:37:18.948Z,38.45
2019-04-07T11:38:19.702Z,38.33
2019-04-07T11:39:17.830Z,38.35
2019-04-07T11:40:19.207Z,38.77
2019-04-07T11:41:21.669Z,38.55
2019-04-07T11:42:20.361Z,39.58
2019-04-07T11:43:18.559Z,40.01
2019-04-07T11:44:20.184Z,40.74
2019-04-07T11:45:20.703Z,41.77
2019-04-07T11:46:19.089Z,41.35
2019-04-07T11:47:19.719Z,40.32
2019-04-07T11:48:19.397Z,40.72
2019-04-07T11:49:19.580Z,39.61
2019-04-07T11:50:19.694Z,40.74
2019-04-07T11:51:20.572Z,39.94
2019-04-07T11:52:20.076Z,40.14
2019-04-07T11:53:21.182Z,40.34
2019-04-07T11:54:20.443Z,40.42
2019-04-07T11:55:20.580Z,39.39
2019-04-07T11:56:20.734Z,39.29
2019-04-07T11:57:21.524Z,39.79
2019-04-07T11:58:28.787Z,40.60
2019-04-07T11:59:23.940Z,40.52
2019-04-07T12:00:21.530Z,41.42
2019-04-07T12:01:22.925Z,40.84
2019-04-07T12:02:23.050Z,40.94
2019-04-07T12:03:24.826Z,40.32
2019-04-07T12:04:25.115Z,40.82
2019-04-07T12:05:22.436Z,39.79
2019-04-07T12:06:24.631Z,39.76
2019-04-07T12:07:23.748Z,39.76
2019-04-07T12:08:25.048Z,39.05
2019-04-07T12:09:24.135Z,39.05
2019-04-07T12:10:23.238Z,40.38
2019-04-07T12:11:23.423Z,40.26
2019-04-07T12:12:24.516Z,39.05
2019-04-07T12:13:23.767Z,38.67
2019-04-07T12:14:24.458Z,39.84
2019-04-07T12:15:26.714Z,39.05
2019-04-07T12:16:28.643Z,38.43
2019-04-07T12:17:24.626Z,38.23
2019-04-07T12:18:24.831Z,38.81
2019-04-07T12:19:26.049Z,37.41
2019-04-07T12:20:27.377Z,38.73
2019-04-07T12:21:26.724Z,38.73
2019-04-07T12:22:26.134Z,38.23
2019-04-07T12:23:27.474Z,38.33
2019-04-07T12:24:28.663Z,36.62
2019-04-07T12:25:29.354Z,39.17
2019-04-07T12:26:27.368Z,38.47
2019-04-07T12:27:27.030Z,39.78
2019-04-07T12:28:26.847Z,38.87
2019-04-07T12:29:27.177Z,39.28
2019-04-07T12:30:26.913Z,39.98
2019-04-07T12:31:27.698Z,39.68
2019-04-07T12:32:28.047Z,39.36
2019-04-07T12:33:27.403Z,39.94
2019-04-07T12:34:27.622Z,38.70
2019-04-07T12:35:28.892Z,40.08
2019-04-07T12:36:30.730Z,36.87
2019-04-07T12:37:29.170Z,36.87
2019-04-07T12:38:28.546Z,38.07
2019-04-07T12:39:28.883Z,37.07
2019-04-07T12:40:29.035Z,38.28
2019-04-07T12:41:31.850Z,38.66
2019-04-07T12:42:30.055Z,37.34
2019-04-07T12:43:29.260Z,37.55
2019-04-07T12:44:30.033Z,36.67
2019-04-07T12:45:29.987Z,37.49
2019-04-07T12:46:30.079Z,36.80
2019-04-07T12:47:30.095Z,38.51
2019-04-07T12:48:32.007Z,38.53
2019-04-07T12:49:33.335Z,39.74
2019-04-07T12:50:31.696Z,38.42
2019-04-07T12:51:30.816Z,38.81
2019-04-07T12:52:32.335Z,38.51
2019-04-07T12:53:34.435Z,38.43
2019-04-07T12:54:33.131Z,38.64